Aviation Digital Data Service (ADDS)

Output produced by METARs form (2052 UTC 24 June 2018)
found at http://www.aviationweather.gov/adds/metars/
 
LSMA 241950Z AUTO 24002KT 1000NDV R01/P2000D R19/P2000U OVC091 18/11 Q1020 RMK
LSZB 242020Z VRB03KT 9999 FEW120 17/07 Q1020 NOSIG
TAF LSZB 241425Z 2415/2424 31006KT 9999 FEW050 SCT110
       
LSMD 241950Z AUTO VRB02KT 9999NDV BKN063 BKN085 18/10 Q1020 RMK
LSME 241950Z AUTO 00000KT 9999NDV BKN071 OVC097 18/11 Q1020 RMK
LSGG 242020Z AUTO 02005KT CAVOK 18/11 Q1019
TAF LSGG 242025Z 2421/2603 VRB03KT 9999 FEW050 SCT250 TX24/2515Z TN13/2504Z 
     BECMG 2505/2507 05012KT 
     BECMG 2510/2512 05015G27KT 
     BECMG 2518/2520 05012KT
       
LSGC 242020Z AUTO 03005KT 350V060 CAVOK 12/07 Q1022
TAF LSGC 241425Z 2415/2424 04007KT 9999 SCT030 
     PROB30 
     TEMPO 2415/2417 TS FEW030CB 
     BECMG 2417/2420 CAVOK
       
LSZA 242020Z AUTO VRB02KT 9999 BKN120 20/15 Q1016
TAF LSZA 241425Z 2415/2424 20008KT 9999 FEW050 SCT170
       
LSMM 241950Z AUTO 06007KT 020V140 9999NDV OVC052 18/09 Q1020 RMK
LSMP 241950Z AUTO 05003KT 010V080 9999NDV NCD 16/09 Q1020 RMK
LSZS 242020Z AUTO VRB03KT 9999 -RA FEW038TCU BKN045 07/06 Q1022
TAF LSZS 241425Z 2415/2424 01005KT 9999 BKN050 TX15/2415Z
       
LSGS 242020Z AUTO 10003KT 070V160 CAVOK 18/10 Q1018
TAF LSGS 241425Z 2415/2424 25012KT 9999 SCT100 
     BECMG 2418/2421 VRB03KT
       
LSZR 242020Z AUTO 03003KT 350V080 9999 NCD 18/09 Q1020
TAF LSZR 241425Z 2415/2424 28006KT CAVOK 
     TEMPO 2415/2424 9999 SCT050
       
LSZH 242020Z VRB03KT 9999 FEW055 SCT060 17/10 Q1020 NOSIG
TAF LSZH 242025Z 2421/2603 VRB03KT 9999 SCT050 TX22/2515Z TN10/2504Z 
     BECMG 2507/2510 05008KT 
     BECMG 2512/2515 CAVOK